Time;durP1;ratioP1;P1;durP2;ratioP2;P2;SDS_P1;SDS_P2;PMS_P1;PMS_P2;Temp;Humidity;BMP_temperature;BMP_pressure;BME280_temperature;BME280_humidity;BME280_pressure;Samples;Min_cycle;Max_cycle;Signal;HPM_P1;HPM_P2
2023/03/03 00:00:51;;;;;;;9.70;5.80;;;3.10;98.00;;;;;;5051613;28;20868;-65
2023/03/03 00:03:20;;;;;;;9.53;4.43;;;3.00;98.00;;;;;;5051623;28;20464;-65
2023/03/03 00:05:48;;;;;;;19.00;6.30;;;2.70;98.00;;;;;;5055536;28;20465;-65
2023/03/03 00:08:16;;;;;;;8.83;5.17;;;2.60;98.00;;;;;;5055951;28;20542;-65
2023/03/03 00:10:45;;;;;;;14.40;6.20;;;2.50;98.00;;;;;;5055930;28;20476;-65
2023/03/03 00:13:17;;;;;;;9.00;4.93;;;2.40;98.00;;;;;;5055664;28;20521;-65
2023/03/03 00:15:47;;;;;;;8.50;5.43;;;2.40;98.00;;;;;;5055381;28;20967;-65
2023/03/03 00:18:30;;;;;;;8.60;5.07;;;2.30;98.00;;;;;;5055397;28;20953;-65
2023/03/03 00:21:01;;;;;;;13.90;5.50;;;2.10;98.00;;;;;;5055465;28;20468;-65
2023/03/03 00:23:35;;;;;;;6.47;4.70;;;2.10;98.00;;;;;;5055219;28;20951;-65
2023/03/03 00:26:19;;;;;;;11.90;5.27;;;2.00;98.00;;;;;;5055251;28;20504;-65
2023/03/03 00:28:47;;;;;;;21.10;5.40;;;2.10;98.00;;;;;;5054255;28;20573;-65
2023/03/03 00:31:18;;;;;;;11.23;4.70;;;2.10;98.00;;;;;;5055183;28;20455;-65
2023/03/03 00:33:53;;;;;;;15.53;7.27;;;2.00;98.00;;;;;;5055184;28;20586;-65
2023/03/03 00:36:38;;;;;;;11.37;5.13;;;2.00;98.00;;;;;;5053887;28;20541;-65
2023/03/03 00:39:22;;;;;;;16.67;5.73;;;2.00;98.00;;;;;;5055083;28;20467;-65
2023/03/03 00:41:50;;;;;;;7.40;4.57;;;1.90;98.00;;;;;;5054872;28;20979;-65
2023/03/03 00:44:41;;;;;;;9.03;4.60;;;1.90;98.00;;;;;;5054983;28;20465;-65
2023/03/03 00:47:27;;;;;;;14.30;5.07;;;2.10;98.00;;;;;;5054677;28;20491;-65
2023/03/03 00:49:57;;;;;;;23.33;5.73;;;2.00;98.00;;;;;;5054634;28;20480;-66
2023/03/03 00:52:28;;;;;;;9.43;4.97;;;1.90;98.00;;;;;;5054918;28;20581;-65
2023/03/03 00:54:55;;;;;;;15.27;6.40;;;1.90;98.00;;;;;;5055001;28;20525;-65
2023/03/03 00:57:25;;;;;;;10.87;4.80;;;2.00;98.00;;;;;;5054400;28;20463;-65
2023/03/03 00:59:52;;;;;;;10.90;5.40;;;2.20;98.00;;;;;;5054701;28;20822;-65
2023/03/03 01:02:20;;;;;;;8.17;5.30;;;2.30;98.00;;;;;;5054713;28;20466;-65
2023/03/03 01:04:51;;;;;;;9.00;5.50;;;2.20;98.00;;;;;;5054815;28;20888;-65
2023/03/03 01:07:18;;;;;;;12.13;5.70;;;2.10;98.00;;;;;;5054811;28;20871;-65
2023/03/03 01:09:46;;;;;;;15.20;5.97;;;2.20;98.00;;;;;;5054724;28;20457;-65
2023/03/03 01:12:13;;;;;;;11.53;4.90;;;2.00;98.00;;;;;;5054249;28;20449;-65
2023/03/03 01:14:44;;;;;;;11.90;5.40;;;1.80;98.00;;;;;;5054208;28;20875;-65
2023/03/03 01:17:12;;;;;;;14.37;6.03;;;1.70;98.00;;;;;;5053511;28;20458;-65
2023/03/03 01:19:39;;;;;;;8.40;5.17;;;1.70;98.00;;;;;;5053252;28;20464;-65
2023/03/03 01:22:06;;;;;;;13.03;5.43;;;1.70;98.00;;;;;;5053924;28;20462;-65
2023/03/03 01:24:33;;;;;;;8.63;4.57;;;1.60;98.00;;;;;;5053824;28;20933;-65
2023/03/03 01:27:00;;;;;;;6.73;4.43;;;1.60;98.00;;;;;;5052496;28;20587;-65
2023/03/03 01:29:28;;;;;;;12.77;5.30;;;1.70;98.00;;;;;;5053881;28;20820;-65
2023/03/03 01:31:56;;;;;;;14.00;5.90;;;1.70;98.00;;;;;;5053642;28;20447;-65
2023/03/03 01:34:23;;;;;;;11.40;5.40;;;1.60;98.00;;;;;;5053486;28;20479;-64
2023/03/03 01:36:50;;;;;;;14.10;6.00;;;1.60;98.00;;;;;;5053364;28;20454;-65
2023/03/03 01:39:17;;;;;;;6.93;5.10;;;1.50;98.00;;;;;;5053748;28;20477;-64
2023/03/03 01:41:44;;;;;;;10.00;5.90;;;1.40;98.00;;;;;;5053875;28;20454;-65
2023/03/03 01:44:15;;;;;;;8.40;4.20;;;1.50;98.00;;;;;;5053845;28;20454;-65
2023/03/03 01:46:59;;;;;;;10.53;4.20;;;1.70;98.00;;;;;;5053560;28;20465;-65
2023/03/03 01:49:29;;;;;;;10.90;4.23;;;1.80;98.00;;;;;;5053566;28;20462;-65
2023/03/03 01:51:59;;;;;;;9.27;3.97;;;1.80;98.00;;;;;;5053855;28;20458;-64
2023/03/03 01:54:31;;;;;;;10.37;4.37;;;1.90;98.00;;;;;;5035980;28;20515;-64
2023/03/03 01:57:01;;;;;;;7.90;4.20;;;1.80;98.00;;;;;;5053514;28;20462;-64
2023/03/03 01:59:31;;;;;;;18.67;6.63;;;1.60;98.00;;;;;;5053461;28;20457;-65
2023/03/03 02:02:00;;;;;;;16.03;5.77;;;1.40;98.00;;;;;;5053763;28;20466;-65
2023/03/03 02:04:28;;;;;;;10.33;5.20;;;1.30;98.00;;;;;;5053580;28;20458;-65
2023/03/03 02:07:00;;;;;;;10.60;5.23;;;1.30;98.00;;;;;;5053646;28;20462;-65
2023/03/03 02:09:33;;;;;;;13.93;5.40;;;1.40;98.00;;;;;;5053358;28;20464;-64
2023/03/03 02:12:05;;;;;;;8.00;4.57;;;1.50;98.00;;;;;;5053286;28;21036;-64
2023/03/03 02:14:33;;;;;;;12.27;6.30;;;1.30;98.00;;;;;;5053120;28;20490;-64
2023/03/03 02:17:02;;;;;;;9.47;5.83;;;1.40;98.00;;;;;;5053164;28;20461;-64
2023/03/03 02:19:39;;;;;;;12.77;4.83;;;1.40;98.00;;;;;;5052857;28;20463;-64
2023/03/03 02:22:07;;;;;;;12.73;5.93;;;1.40;98.00;;;;;;5052998;28;20857;-64
2023/03/03 02:24:42;;;;;;;17.73;6.27;;;1.70;98.00;;;;;;5053122;28;20533;-65
2023/03/03 02:27:10;;;;;;;7.43;4.83;;;1.90;98.00;;;;;;5050555;28;20459;-64
2023/03/03 02:29:37;;;;;;;16.03;7.50;;;2.00;98.00;;;;;;5052646;28;20459;-64
2023/03/03 02:32:05;;;;;;;7.83;5.30;;;1.90;98.00;;;;;;5052670;28;20943;-65
2023/03/03 02:34:43;;;;;;;11.17;5.40;;;1.90;98.00;;;;;;5052601;28;20486;-64
2023/03/03 02:37:10;;;;;;;9.00;4.70;;;1.90;98.00;;;;;;5052898;28;20454;-65
2023/03/03 02:39:40;;;;;;;16.50;5.93;;;2.00;98.00;;;;;;5052674;28;20454;-64
2023/03/03 02:42:14;;;;;;;14.50;6.20;;;2.00;98.00;;;;;;5051408;28;20508;-64
2023/03/03 02:44:42;;;;;;;17.13;6.63;;;2.10;98.00;;;;;;5052783;28;20915;-64
2023/03/03 02:47:09;;;;;;;16.20;7.57;;;2.10;98.00;;;;;;5052624;28;20469;-65
2023/03/03 02:49:39;;;;;;;11.83;6.20;;;2.10;98.00;;;;;;5052514;28;20466;-65
2023/03/03 02:52:09;;;;;;;11.07;5.87;;;2.10;98.00;;;;;;5052459;28;20457;-65
2023/03/03 02:54:36;;;;;;;37.90;6.77;;;2.10;98.00;;;;;;5052501;28;20564;-64
2023/03/03 02:57:05;;;;;;;12.13;5.37;;;2.00;98.00;;;;;;5052615;28;20485;-65
2023/03/03 02:59:33;;;;;;;6.00;4.40;;;2.00;98.00;;;;;;5052401;28;20455;-64
2023/03/03 03:02:00;;;;;;;8.67;5.43;;;2.10;98.00;;;;;;5052491;28;20959;-64
2023/03/03 03:04:28;;;;;;;9.20;5.20;;;2.30;98.00;;;;;;5051547;28;20461;-64
2023/03/03 03:06:56;;;;;;;11.47;5.37;;;2.30;98.00;;;;;;5052117;28;20449;-65
2023/03/03 03:09:24;;;;;;;10.47;5.00;;;2.30;98.00;;;;;;5052283;28;20456;-64
2023/03/03 03:11:52;;;;;;;11.13;5.37;;;2.20;98.00;;;;;;5051948;28;20463;-65
2023/03/03 03:14:19;;;;;;;8.70;5.30;;;2.10;98.00;;;;;;5050630;28;21038;-65
2023/03/03 03:16:48;;;;;;;9.63;5.20;;;2.20;98.00;;;;;;5051848;28;20467;-64
2023/03/03 03:19:15;;;;;;;10.50;4.03;;;2.20;98.00;;;;;;5050710;28;20463;-65
2023/03/03 03:21:42;;;;;;;11.33;5.57;;;2.30;98.00;;;;;;5050664;28;20481;-64
2023/03/03 03:24:09;;;;;;;12.50;5.50;;;2.30;98.00;;;;;;5051971;28;20509;-64
2023/03/03 03:26:37;;;;;;;10.27;5.53;;;2.30;98.00;;;;;;5051672;28;20466;-65
2023/03/03 03:29:04;;;;;;;17.57;5.97;;;2.40;98.00;;;;;;5051984;28;20459;-65
2023/03/03 03:31:31;;;;;;;13.20;5.10;;;2.40;98.00;;;;;;5051586;28;20502;-65
2023/03/03 03:33:59;;;;;;;8.30;4.33;;;2.50;98.00;;;;;;5051522;28;20984;-64
2023/03/03 03:36:27;;;;;;;17.37;5.07;;;2.50;98.00;;;;;;5051333;28;20533;-64
2023/03/03 03:38:57;;;;;;;18.27;5.37;;;2.40;98.00;;;;;;5051487;28;20946;-65
2023/03/03 03:41:24;;;;;;;9.40;4.67;;;2.50;98.00;;;;;;5051593;28;20552;-64
2023/03/03 03:43:51;;;;;;;21.33;6.37;;;2.50;98.00;;;;;;5051761;28;20465;-65
2023/03/03 03:46:18;;;;;;;12.07;5.13;;;2.40;98.00;;;;;;5051337;28;20858;-65
2023/03/03 03:48:45;;;;;;;10.53;5.77;;;2.40;98.00;;;;;;5051450;28;20958;-65
2023/03/03 03:51:14;;;;;;;10.67;5.57;;;2.60;98.00;;;;;;5051340;28;20527;-65
2023/03/03 03:53:41;;;;;;;19.00;5.50;;;2.40;98.00;;;;;;5051249;28;20489;-65
2023/03/03 03:56:09;;;;;;;9.13;5.33;;;2.40;98.00;;;;;;5051680;28;20454;-65
2023/03/03 03:58:36;;;;;;;24.83;5.90;;;2.40;98.00;;;;;;5051284;28;20456;-64
2023/03/03 04:01:05;;;;;;;8.67;5.07;;;2.50;98.00;;;;;;5051664;28;20857;-64
2023/03/03 04:03:32;;;;;;;9.90;4.90;;;2.40;98.00;;;;;;5051473;28;20463;-64
2023/03/03 04:06:00;;;;;;;11.53;6.37;;;2.30;98.00;;;;;;5051649;28;20529;-65
2023/03/03 04:08:28;;;;;;;19.13;6.83;;;2.30;98.00;;;;;;5051176;28;20450;-64
2023/03/03 04:10:55;;;;;;;10.07;5.03;;;2.50;98.00;;;;;;5051464;28;20525;-64
2023/03/03 04:13:23;;;;;;;11.13;5.93;;;2.40;98.00;;;;;;5051003;28;20502;-64
2023/03/03 04:15:50;;;;;;;14.43;5.90;;;2.20;98.00;;;;;;5051321;28;20528;-64
2023/03/03 04:18:17;;;;;;;11.77;5.87;;;2.10;98.00;;;;;;5051064;28;20967;-64
2023/03/03 04:20:44;;;;;;;13.47;5.80;;;2.10;98.00;;;;;;5050766;28;20965;-64
2023/03/03 04:23:11;;;;;;;12.17;6.50;;;2.20;98.00;;;;;;5051371;28;20454;-64
2023/03/03 04:25:40;;;;;;;15.33;4.97;;;2.50;98.00;;;;;;5050982;28;20463;-65
2023/03/03 04:28:07;;;;;;;9.53;4.97;;;2.60;98.00;;;;;;5051022;28;20451;-65
2023/03/03 04:30:34;;;;;;;12.70;5.27;;;2.70;98.00;;;;;;5051256;28;20453;-64
2023/03/03 04:33:01;;;;;;;9.87;5.23;;;2.80;98.00;;;;;;5051128;28;20469;-66
2023/03/03 04:35:28;;;;;;;14.33;6.00;;;2.70;98.00;;;;;;5051359;28;20466;-66
2023/03/03 04:37:55;;;;;;;11.70;6.13;;;2.70;98.00;;;;;;5050065;28;20471;-66
2023/03/03 04:40:22;;;;;;;11.70;5.77;;;2.70;98.00;;;;;;5051117;28;20458;-66
2023/03/03 04:42:51;;;;;;;11.23;4.50;;;2.60;98.00;;;;;;5051059;28;20462;-66
2023/03/03 04:45:18;;;;;;;13.07;5.63;;;2.60;98.00;;;;;;5051261;28;20454;-66
2023/03/03 04:47:45;;;;;;;9.63;5.30;;;2.60;98.00;;;;;;5050902;28;20925;-66
2023/03/03 04:50:13;;;;;;;13.17;6.80;;;2.60;98.00;;;;;;5050031;28;20467;-66
2023/03/03 04:52:40;;;;;;;10.17;5.07;;;2.60;98.00;;;;;;5055044;28;20456;-66
2023/03/03 04:55:09;;;;;;;19.90;6.97;;;2.70;98.00;;;;;;5054737;28;20489;-66
2023/03/03 04:57:36;;;;;;;13.30;5.37;;;2.70;98.00;;;;;;5054800;28;20521;-66
2023/03/03 05:00:06;;;;;;;10.57;6.23;;;2.70;98.00;;;;;;5053633;28;20815;-66
2023/03/03 05:02:33;;;;;;;38.27;5.57;;;2.70;98.00;;;;;;5054445;28;20547;-66
2023/03/03 05:05:00;;;;;;;11.47;4.70;;;2.90;98.00;;;;;;5054530;28;20466;-66
2023/03/03 05:07:27;;;;;;;8.80;5.70;;;3.00;98.00;;;;;;5054239;28;20458;-66
2023/03/03 05:09:54;;;;;;;8.63;4.97;;;2.90;98.00;;;;;;5053135;28;20462;-66
2023/03/03 05:12:22;;;;;;;11.10;4.90;;;2.70;98.00;;;;;;5054259;28;20482;-66
2023/03/03 05:14:49;;;;;;;11.77;6.07;;;2.60;98.00;;;;;;5054314;28;20486;-66
2023/03/03 05:17:20;;;;;;;10.77;4.90;;;2.50;98.00;;;;;;5052817;28;20450;-66
2023/03/03 05:19:47;;;;;;;9.80;5.23;;;2.40;98.00;;;;;;5054132;28;20458;-66
2023/03/03 05:22:18;;;;;;;9.70;5.60;;;2.50;98.00;;;;;;5054121;28;20528;-66
2023/03/03 05:24:48;;;;;;;10.87;5.10;;;2.40;98.00;;;;;;5053972;28;20862;-66
2023/03/03 05:27:15;;;;;;;11.33;6.30;;;2.50;98.00;;;;;;5053810;28;20463;-66
2023/03/03 05:29:42;;;;;;;9.47;5.63;;;2.50;98.00;;;;;;5054086;28;20477;-66
2023/03/03 05:32:09;;;;;;;11.40;5.43;;;2.50;98.00;;;;;;5054074;28;20818;-66
2023/03/03 05:34:38;;;;;;;21.17;6.10;;;2.50;98.00;;;;;;5053795;28;20482;-66
2023/03/03 05:37:06;;;;;;;13.40;5.90;;;2.50;98.00;;;;;;5053450;28;20461;-66
2023/03/03 05:39:35;;;;;;;10.23;5.20;;;2.50;98.00;;;;;;5053825;28;20496;-66
2023/03/03 05:42:02;;;;;;;6.93;4.67;;;2.70;98.00;;;;;;5053821;28;20458;-66
2023/03/03 05:44:29;;;;;;;8.20;4.70;;;2.70;98.00;;;;;;5053743;28;20455;-66
2023/03/03 05:46:57;;;;;;;10.03;5.07;;;2.70;98.00;;;;;;5053759;28;20486;-66
2023/03/03 05:49:25;;;;;;;11.37;5.67;;;2.90;98.00;;;;;;5052556;28;20781;-66
2023/03/03 05:51:53;;;;;;;13.63;5.17;;;3.10;98.00;;;;;;5053735;28;20447;-66
2023/03/03 05:54:21;;;;;;;9.10;4.50;;;3.20;98.00;;;;;;5053769;28;20493;-66
2023/03/03 05:56:48;;;;;;;14.50;6.83;;;3.20;98.00;;;;;;5052635;28;20465;-66
2023/03/03 05:59:16;;;;;;;8.10;4.37;;;3.00;98.00;;;;;;5053931;28;20944;-66
2023/03/03 06:01:43;;;;;;;7.80;5.10;;;3.00;98.00;;;;;;5053505;28;20458;-66
2023/03/03 06:04:10;;;;;;;15.70;5.80;;;3.10;98.00;;;;;;5051932;28;20455;-66
2023/03/03 06:06:37;;;;;;;8.73;5.13;;;3.10;98.00;;;;;;5053253;28;20454;-66
2023/03/03 06:09:06;;;;;;;12.63;6.13;;;3.00;98.00;;;;;;5053249;28;20468;-66
2023/03/03 06:11:34;;;;;;;11.63;5.90;;;2.90;98.00;;;;;;5052944;28;20465;-66
2023/03/03 06:14:01;;;;;;;11.37;5.60;;;2.90;98.00;;;;;;5053102;28;20805;-66
2023/03/03 06:16:28;;;;;;;12.27;5.27;;;2.90;98.00;;;;;;5052641;28;20971;-66
2023/03/03 06:18:55;;;;;;;10.30;5.00;;;2.70;98.00;;;;;;5052610;28;20465;-66
2023/03/03 06:21:22;;;;;;;11.80;5.27;;;2.70;98.00;;;;;;5052422;28;20796;-67
2023/03/03 06:23:49;;;;;;;8.80;5.40;;;2.70;98.00;;;;;;5052927;28;20524;-66
2023/03/03 06:26:18;;;;;;;24.40;6.40;;;2.80;98.00;;;;;;5052657;28;20968;-66
2023/03/03 06:28:45;;;;;;;15.90;6.80;;;2.90;98.00;;;;;;5052787;28;20467;-66
2023/03/03 06:31:12;;;;;;;7.33;4.70;;;2.90;98.00;;;;;;5051726;28;20457;-66
2023/03/03 06:33:41;;;;;;;6.30;4.50;;;2.90;98.00;;;;;;5051451;28;20537;-66
2023/03/03 06:36:08;;;;;;;9.27;5.63;;;2.80;98.00;;;;;;5052823;28;20455;-66
2023/03/03 06:38:38;;;;;;;10.23;5.50;;;2.90;98.00;;;;;;5052598;28;20454;-66
2023/03/03 06:41:06;;;;;;;14.17;5.10;;;2.80;98.00;;;;;;5052829;28;20546;-66
2023/03/03 06:43:34;;;;;;;9.47;3.90;;;2.70;98.00;;;;;;5052588;28;20549;-66
2023/03/03 06:46:01;;;;;;;11.43;4.13;;;2.90;98.00;;;;;;5053057;28;20461;-66
2023/03/03 06:48:29;;;;;;;9.00;4.87;;;3.00;98.00;;;;;;5052235;28;20823;-66
2023/03/03 06:50:57;;;;;;;13.77;5.50;;;3.20;98.00;;;;;;5052926;28;20461;-66
2023/03/03 06:53:24;;;;;;;9.70;5.27;;;3.20;98.00;;;;;;5052429;28;20506;-66
2023/03/03 06:55:51;;;;;;;10.30;6.00;;;3.20;98.00;;;;;;5052487;28;20806;-65
2023/03/03 06:58:20;;;;;;;10.30;5.30;;;3.40;98.00;;;;;;5051473;28;20454;-66
2023/03/03 07:00:54;;;;;;;10.97;5.00;;;3.40;98.00;;;;;;5052419;28;20941;-66
2023/03/03 07:03:24;;;;;;;13.70;6.00;;;3.40;98.00;;;;;;5052313;28;20460;-63
2023/03/03 07:05:52;;;;;;;10.83;5.60;;;3.40;98.00;;;;;;5052241;28;20877;-63
2023/03/03 07:08:22;;;;;;;17.70;5.23;;;3.60;98.00;;;;;;5051178;28;20516;-63
2023/03/03 07:10:51;;;;;;;13.20;5.60;;;3.70;98.00;;;;;;5051287;28;20847;-63
2023/03/03 07:13:21;;;;;;;13.07;6.83;;;3.80;98.00;;;;;;5051686;28;20460;-63
2023/03/03 07:15:50;;;;;;;14.23;6.07;;;3.80;98.00;;;;;;5052090;28;20874;-63
2023/03/03 07:18:35;;;;;;;12.13;5.83;;;3.70;98.00;;;;;;5052271;28;20462;-63
2023/03/03 07:21:17;;;;;;;10.37;5.47;;;3.60;98.00;;;;;;5051988;28;20460;-63
2023/03/03 07:23:46;;;;;;;10.20;6.50;;;3.40;98.00;;;;;;5052132;28;20462;-64
2023/03/03 07:26:16;;;;;;;12.10;5.60;;;3.30;98.00;;;;;;5052101;28;20461;-63
2023/03/03 07:28:45;;;;;;;10.30;5.10;;;3.30;98.00;;;;;;5052074;28;20529;-63
2023/03/03 07:31:29;;;;;;;16.13;7.23;;;3.40;98.00;;;;;;5052019;28;20508;-63
2023/03/03 07:33:59;;;;;;;11.57;5.63;;;3.40;98.00;;;;;;5051939;28;21150;-63
2023/03/03 07:36:31;;;;;;;10.27;5.10;;;3.40;98.00;;;;;;5052059;28;20460;-63
2023/03/03 07:39:01;;;;;;;12.50;4.97;;;3.40;98.00;;;;;;5051923;28;20461;-64
2023/03/03 07:41:28;;;;;;;14.77;5.50;;;3.40;98.00;;;;;;5052092;28;20549;-63
2023/03/03 07:44:00;;;;;;;10.67;5.07;;;3.40;98.00;;;;;;5051962;28;20473;-63
2023/03/03 07:46:34;;;;;;;9.90;6.30;;;3.60;98.00;;;;;;5052076;28;20452;-63
2023/03/03 07:49:02;;;;;;;12.10;5.80;;;3.80;98.00;;;;;;5051850;28;20468;-63
2023/03/03 07:51:38;;;;;;;10.40;4.90;;;3.90;98.00;;;;;;5052014;28;20484;-63
2023/03/03 07:54:19;;;;;;;11.17;5.83;;;3.80;98.00;;;;;;5052044;28;20454;-64
2023/03/03 07:56:49;;;;;;;13.67;7.00;;;3.80;98.00;;;;;;5051872;28;20467;-63
2023/03/03 07:59:22;;;;;;;10.00;5.23;;;4.10;98.00;;;;;;5051959;28;20468;-64
2023/03/03 08:01:54;;;;;;;11.40;5.67;;;4.10;98.00;;;;;;5051504;28;20946;-63
2023/03/03 08:04:24;;;;;;;9.33;5.83;;;4.10;98.00;;;;;;5051873;28;20466;-63
2023/03/03 08:06:55;;;;;;;8.83;4.37;;;4.10;98.00;;;;;;5051441;28;20542;-63
2023/03/03 08:09:42;;;;;;;13.40;5.50;;;4.20;98.00;;;;;;5051667;28;20461;-64
2023/03/03 08:12:30;;;;;;;13.07;7.17;;;4.40;98.00;;;;;;5050575;28;20462;-64
2023/03/03 08:15:02;;;;;;;11.63;6.20;;;4.50;98.00;;;;;;5051392;28;20504;-63
2023/03/03 08:17:36;;;;;;;15.63;5.30;;;4.50;98.00;;;;;;5051757;28;20464;-63
2023/03/03 08:20:24;;;;;;;16.60;6.03;;;4.60;98.00;;;;;;5051497;28;20795;-64
2023/03/03 08:22:51;;;;;;;12.03;5.93;;;4.60;98.00;;;;;;5050047;28;20471;-63
2023/03/03 08:25:18;;;;;;;15.93;6.50;;;4.80;98.00;;;;;;5053214;28;20460;-62
2023/03/03 08:27:45;;;;;;;16.73;8.10;;;4.90;98.00;;;;;;5054309;28;20448;-64
2023/03/03 08:30:13;;;;;;;14.90;6.80;;;4.90;98.00;;;;;;5055458;28;20450;-63
2023/03/03 08:32:42;;;;;;;14.60;6.87;;;5.00;98.00;;;;;;5055338;28;20455;-63
2023/03/03 08:35:09;;;;;;;12.67;6.30;;;5.00;98.00;;;;;;5055341;28;20481;-63
2023/03/03 08:37:36;;;;;;;17.73;6.37;;;5.10;98.00;;;;;;5055487;28;20460;-63
2023/03/03 08:40:04;;;;;;;14.20;6.50;;;5.10;98.00;;;;;;5055223;28;20966;-63
2023/03/03 08:42:31;;;;;;;14.47;8.10;;;5.10;98.00;;;;;;5055382;28;20448;-63
2023/03/03 08:44:58;;;;;;;16.63;6.73;;;5.10;98.00;;;;;;5055182;28;20453;-63
2023/03/03 08:47:26;;;;;;;13.00;7.37;;;5.00;98.00;;;;;;5055106;28;20832;-64
2023/03/03 08:49:55;;;;;;;15.90;6.23;;;4.90;98.00;;;;;;5054182;28;20674;-64
2023/03/03 08:52:22;;;;;;;19.73;6.93;;;4.80;98.00;;;;;;5055112;28;20461;-64
2023/03/03 08:54:49;;;;;;;11.00;5.80;;;4.70;98.00;;;;;;5054014;28;20484;-63
2023/03/03 08:57:16;;;;;;;14.43;6.80;;;4.80;98.00;;;;;;5053197;28;20457;-63
2023/03/03 08:59:44;;;;;;;18.00;8.80;;;4.90;98.00;;;;;;5055172;28;20786;-63
2023/03/03 09:02:11;;;;;;;11.30;6.00;;;4.90;98.00;;;;;;5054584;28;20956;-64
2023/03/03 09:04:38;;;;;;;14.23;7.03;;;5.10;98.00;;;;;;5054666;28;21013;-64
2023/03/03 09:07:07;;;;;;;18.73;6.73;;;5.30;98.00;;;;;;5054354;28;20458;-63
2023/03/03 09:09:36;;;;;;;17.50;6.57;;;5.40;98.00;;;;;;5054455;28;20469;-63
2023/03/03 09:12:13;;;;;;;19.67;7.30;;;5.50;98.00;;;;;;5054469;28;20456;-63
2023/03/03 09:14:40;;;;;;;15.00;5.73;;;5.60;98.00;;;;;;5053438;28;20464;-63
2023/03/03 09:17:23;;;;;;;26.23;7.03;;;5.70;98.00;;;;;;5054272;28;20967;-64
2023/03/03 09:19:50;;;;;;;11.17;5.93;;;6.00;98.00;;;;;;5054541;28;20464;-63
2023/03/03 09:22:22;;;;;;;16.40;7.40;;;6.20;98.00;;;;;;5054401;28;20445;-64
2023/03/03 09:24:52;;;;;;;18.90;6.20;;;6.30;98.00;;;;;;5052911;28;20552;-63
2023/03/03 09:27:29;;;;;;;12.47;6.60;;;6.30;98.00;;;;;;5054375;28;20456;-64
2023/03/03 09:30:01;;;;;;;15.20;5.97;;;6.30;98.00;;;;;;5054217;28;20903;-63
2023/03/03 09:32:36;;;;;;;19.47;7.23;;;6.40;98.00;;;;;;5054247;28;20468;-63
2023/03/03 09:35:40;;;;;;;20.37;7.23;;;6.40;98.00;;;;;;5054239;28;20484;-63
2023/03/03 09:38:25;;;;;;;11.60;6.20;;;6.40;98.00;;;;;;5050096;28;20484;-64
2023/03/03 09:41:10;;;;;;;21.63;7.00;;;6.50;98.00;;;;;;5054252;28;20461;-64
2023/03/03 09:43:48;;;;;;;13.47;6.00;;;6.50;98.00;;;;;;5054052;28;20461;-63
2023/03/03 09:46:23;;;;;;;18.50;8.00;;;6.50;98.00;;;;;;5053988;28;20454;-63
2023/03/03 09:49:02;;;;;;;22.53;9.23;;;6.60;98.00;;;;;;5052683;28;20983;-64
2023/03/03 09:51:56;;;;;;;16.70;6.70;;;6.90;98.00;;;;;;5054031;28;20450;-64
2023/03/03 09:54:40;;;;;;;13.47;6.67;;;7.00;98.00;;;;;;5050530;28;20876;-63
2023/03/03 09:57:14;;;;;;;12.10;6.03;;;6.80;98.00;;;;;;5053456;28;20463;-64
2023/03/03 09:59:53;;;;;;;15.97;7.13;;;6.80;98.00;;;;;;5064719;28;20450;-64
2023/03/03 10:02:38;;;;;;;14.60;7.17;;;6.90;98.00;;;;;;5073218;28;20460;-64
2023/03/03 10:05:32;;;;;;;21.87;6.60;;;7.10;98.00;;;;;;5060511;28;20466;-64
2023/03/03 10:08:11;;;;;;;18.90;7.17;;;7.30;98.00;;;;;;5052905;28;20461;-66
2023/03/03 10:10:53;;;;;;;16.20;7.07;;;7.50;98.00;;;;;;5052674;28;20565;-64
2023/03/03 10:13:43;;;;;;;16.53;5.90;;;7.60;98.00;;;;;;5052615;28;20542;-64
2023/03/03 10:16:37;;;;;;;21.40;6.93;;;7.60;98.00;;;;;;5052482;28;20925;-62
2023/03/03 10:19:27;;;;;;;16.20;6.67;;;7.50;98.00;;;;;;5033085;28;20455;-63
2023/03/03 10:22:07;;;;;;;22.50;7.00;;;7.60;98.00;;;;;;5051481;28;20452;-64
2023/03/03 10:24:45;;;;;;;15.73;6.87;;;7.80;98.00;;;;;;5052509;28;20467;-64
2023/03/03 10:27:34;;;;;;;20.93;7.93;;;7.80;98.00;;;;;;5052349;28;20500;-63
2023/03/03 10:30:07;;;;;;;25.03;8.10;;;7.80;98.00;;;;;;5052259;28;20497;-64
2023/03/03 10:32:50;;;;;;;19.33;7.80;;;7.90;98.00;;;;;;5052184;28;20472;-65
2023/03/03 10:35:45;;;;;;;28.90;10.30;;;8.10;98.00;;;;;;5052486;28;20493;-63
2023/03/03 10:38:30;;;;;;;11.67;7.00;;;8.20;98.00;;;;;;5052050;28;20468;-63
2023/03/03 10:41:06;;;;;;;21.40;7.27;;;8.30;98.00;;;;;;5060260;28;20946;-64
2023/03/03 10:44:02;;;;;;;31.50;8.67;;;8.30;98.00;;;;;;5071775;28;20463;-63
2023/03/03 10:46:56;;;;;;;29.00;8.50;;;8.30;98.00;;;;;;5072088;28;20458;-63
2023/03/03 10:49:38;;;;;;;26.20;8.60;;;8.60;98.00;;;;;;5070898;28;20891;-64
2023/03/03 10:52:32;;;;;;;22.67;8.73;;;8.70;98.00;;;;;;5071601;28;21013;-64
2023/03/03 10:55:17;;;;;;;19.03;7.87;;;8.90;98.00;;;;;;5065714;28;20456;-64
2023/03/03 10:57:54;;;;;;;30.97;8.40;;;9.00;98.00;;;;;;5072083;28;20546;-64
2023/03/03 11:00:35;;;;;;;21.00;8.37;;;9.40;98.00;;;;;;5058300;28;20465;-64
2023/03/03 11:03:33;;;;;;;24.40;8.80;;;9.60;98.00;;;;;;5052270;28;20458;-65
2023/03/03 11:06:05;;;;;;;25.57;8.80;;;9.60;98.00;;;;;;5045370;28;20487;-64
2023/03/03 11:08:38;;;;;;;20.67;7.30;;;10.20;98.00;;;;;;5051605;28;20944;-64
2023/03/03 11:11:16;;;;;;;25.40;8.20;;;10.80;98.00;;;;;;5052059;28;20995;-64
2023/03/03 11:13:48;;;;;;;23.30;8.77;;;11.20;98.00;;;;;;5048714;28;20462;-64
2023/03/03 11:16:36;;;;;;;21.70;9.23;;;11.60;98.00;;;;;;5044546;28;20500;-64
2023/03/03 11:19:19;;;;;;;24.70;9.30;;;12.00;97.50;;;;;;5051407;28;20874;-64
2023/03/03 11:21:51;;;;;;;24.73;8.27;;;11.70;97.40;;;;;;5050124;28;20461;-64
2023/03/03 11:24:34;;;;;;;25.50;8.63;;;11.50;98.00;;;;;;5064583;28;20460;-64
2023/03/03 11:27:14;;;;;;;21.17;8.67;;;11.40;98.00;;;;;;5070933;28;20460;-64
2023/03/03 11:29:58;;;;;;;29.90;10.13;;;11.60;97.50;;;;;;5071982;28;20461;-65
2023/03/03 11:32:36;;;;;;;21.53;9.23;;;11.80;97.20;;;;;;5071744;28;20463;-64
2023/03/03 11:35:16;;;;;;;30.27;9.10;;;11.80;96.70;;;;;;5071813;28;20552;-64
2023/03/03 11:37:54;;;;;;;21.87;8.70;;;11.50;96.70;;;;;;5070712;28;20477;-65
2023/03/03 11:40:27;;;;;;;32.63;9.20;;;11.40;96.80;;;;;;5071055;28;20749;-65
2023/03/03 11:43:03;;;;;;;23.83;8.90;;;11.30;98.00;;;;;;5071380;28;20459;-65
2023/03/03 11:45:39;;;;;;;18.40;8.30;;;11.30;97.80;;;;;;5071009;28;20465;-64
2023/03/03 11:48:16;;;;;;;20.37;8.33;;;11.20;98.00;;;;;;5070993;28;20515;-64
2023/03/03 11:50:55;;;;;;;24.93;9.50;;;11.30;98.00;;;;;;5071212;28;20470;-64
2023/03/03 11:53:40;;;;;;;22.70;8.90;;;11.30;98.00;;;;;;5071030;28;20453;-64
2023/03/03 11:56:20;;;;;;;29.97;9.77;;;11.10;97.70;;;;;;5069965;28;20481;-64
2023/03/03 11:58:54;;;;;;;29.57;9.87;;;11.00;97.60;;;;;;5071608;28;20455;-64
2023/03/03 12:01:26;;;;;;;26.53;10.03;;;10.90;98.00;;;;;;5077692;28;20465;-64
2023/03/03 12:03:58;;;;;;;25.80;10.40;;;11.00;98.00;;;;;;5077885;28;20451;-63
2023/03/03 12:06:32;;;;;;;20.50;8.50;;;11.40;98.00;;;;;;5077339;28;20473;-64
2023/03/03 12:09:17;;;;;;;27.43;8.57;;;11.60;97.10;;;;;;5077598;28;20465;-64
2023/03/03 12:11:49;;;;;;;25.40;8.93;;;11.80;95.40;;;;;;5077485;28;20458;-65
2023/03/03 12:14:41;;;;;;;26.10;9.90;;;12.00;95.80;;;;;;5071086;28;20449;-65
2023/03/03 12:17:22;;;;;;;21.27;8.77;;;12.20;95.70;;;;;;5069697;28;21019;-64
2023/03/03 12:20:03;;;;;;;27.50;9.17;;;12.60;95.60;;;;;;5077375;28;20963;-64
2023/03/03 12:22:34;;;;;;;28.33;9.63;;;13.10;93.90;;;;;;5077257;28;20461;-63
2023/03/03 12:25:23;;;;;;;24.17;9.50;;;13.00;92.40;;;;;;5077362;28;20463;-64
2023/03/03 12:27:56;;;;;;;29.40;8.60;;;13.20;92.60;;;;;;5077370;28;20955;-65
2023/03/03 12:30:40;;;;;;;34.63;9.77;;;13.50;91.40;;;;;;5077554;28;20458;-64
2023/03/03 12:33:24;;;;;;;26.83;9.70;;;14.10;90.50;;;;;;5076943;28;20473;-64
2023/03/03 12:36:04;;;;;;;25.20;9.73;;;13.90;90.00;;;;;;5077421;28;20549;-65
2023/03/03 12:38:44;;;;;;;27.47;8.60;;;13.90;89.60;;;;;;5075986;28;20520;-65
2023/03/03 12:41:19;;;;;;;23.17;9.10;;;14.10;89.20;;;;;;5077266;28;20466;-64
2023/03/03 12:44:02;;;;;;;18.23;7.83;;;14.30;88.40;;;;;;5077146;28;20841;-64
2023/03/03 12:46:40;;;;;;;26.50;9.47;;;14.70;87.90;;;;;;5077214;28;20495;-63
2023/03/03 12:49:07;;;;;;;22.77;9.07;;;14.90;87.60;;;;;;5077068;28;21000;-63
2023/03/03 12:51:45;;;;;;;29.27;9.70;;;14.90;86.80;;;;;;5077155;28;20498;-64
2023/03/03 12:54:25;;;;;;;25.57;9.50;;;14.90;86.10;;;;;;5077287;28;20459;-63
2023/03/03 12:56:56;;;;;;;24.73;8.97;;;14.90;87.00;;;;;;5077283;28;20810;-65
2023/03/03 12:59:35;;;;;;;30.40;10.00;;;15.10;85.40;;;;;;5077190;28;20456;-64
2023/03/03 13:02:25;;;;;;;20.00;7.97;;;14.90;86.00;;;;;;5077165;28;20457;-65
2023/03/03 13:04:56;;;;;;;26.43;10.57;;;14.50;87.30;;;;;;5077165;28;20804;-64
2023/03/03 13:07:30;;;;;;;25.97;9.80;;;14.90;88.00;;;;;;5076808;28;20450;-64
2023/03/03 13:10:14;;;;;;;22.57;9.57;;;15.00;87.00;;;;;;5077055;28;20454;-64
2023/03/03 13:12:45;;;;;;;22.23;10.37;;;14.50;87.10;;;;;;5073043;28;20466;-64
2023/03/03 13:15:21;;;;;;;23.10;9.13;;;14.20;88.10;;;;;;5073656;28;20938;-63